Terminal Aerodrome Forecast
Issued by NWS Springfield, MO

Home | Current Version | Previous Version | Text Only | Print | Product List | Glossary On
Versions: 1 2 3 4 5 6 7 8 9 10 11 12 13 14 15 16 17 18
118
FTUS43 KSGF 201723
TAFSGF
TAF
KSGF 201723Z 2018/2118 24012G20KT P6SM FEW250
     FM210000 27005KT P6SM FEW200
     FM210500 03005KT P6SM SCT120
     FM210800 08006KT P6SM BKN070
     FM210900 09006KT P6SM VCTS BKN045CB
     FM211100 09006KT P6SM VCTS BKN015CB
     FM211300 09007KT P6SM BKN008
     FM211700 07008KT P6SM BKN010=

USA.gov is the U.S. government's official web portal to all federal, state and local government web resources and services.